createdAt,value
2023-01-21T00:00:10.428Z,4.20
2023-01-21T00:02:37.141Z,4.20
2023-01-21T00:05:04.148Z,4.30
2023-01-21T00:07:30.763Z,4.40
2023-01-21T00:09:57.369Z,4.40
2023-01-21T00:12:24.121Z,4.40
2023-01-21T00:14:50.713Z,4.30
2023-01-21T00:17:17.367Z,4.20
2023-01-21T00:19:43.977Z,4.20
2023-01-21T00:22:10.673Z,4.10
2023-01-21T00:24:37.377Z,4.00
2023-01-21T00:27:04.135Z,4.00
2023-01-21T00:29:30.792Z,3.80
2023-01-21T00:31:57.523Z,3.60
2023-01-21T00:34:24.125Z,3.60
2023-01-21T00:36:50.724Z,3.60
2023-01-21T00:39:17.321Z,3.60
2023-01-21T00:41:43.961Z,3.50
2023-01-21T00:44:10.583Z,3.60
2023-01-21T00:46:37.446Z,3.60
2023-01-21T00:49:04.265Z,4.40
2023-01-21T00:51:30.901Z,3.60
2023-01-21T00:53:57.691Z,3.70
2023-01-21T00:56:24.425Z,3.80
2023-01-21T00:58:51.413Z,3.80
2023-01-21T01:01:20.494Z,3.90
2023-01-21T01:03:48.219Z,3.80
2023-01-21T01:06:20.595Z,3.80
2023-01-21T01:08:49.457Z,3.80
2023-01-21T01:11:17.549Z,3.90
2023-01-21T01:13:44.762Z,3.90
2023-01-21T01:16:17.204Z,3.90
2023-01-21T01:18:43.925Z,3.90
2023-01-21T01:21:13.630Z,4.20
2023-01-21T01:23:40.494Z,4.00
2023-01-21T01:26:10.617Z,4.00
2023-01-21T01:28:37.363Z,3.90
2023-01-21T01:31:06.917Z,4.00
2023-01-21T01:33:34.365Z,4.00
2023-01-21T01:36:03.509Z,4.10
2023-01-21T01:38:30.727Z,4.00
2023-01-21T01:40:57.761Z,3.90
2023-01-21T01:43:48.818Z,4.00
2023-01-21T01:46:15.568Z,4.00
2023-01-21T01:48:46.980Z,4.10
2023-01-21T01:51:16.573Z,4.10
2023-01-21T01:53:45.995Z,4.10
2023-01-21T01:56:14.674Z,4.10
2023-01-21T01:58:42.367Z,3.90
2023-01-21T02:01:09.187Z,3.90
2023-01-21T02:03:45.757Z,4.10
2023-01-21T02:06:14.839Z,4.00
2023-01-21T02:08:46.685Z,3.90
2023-01-21T02:11:16.231Z,3.90
2023-01-21T02:13:46.560Z,3.90
2023-01-21T02:16:50.605Z,3.90
2023-01-21T02:19:35.980Z,3.80
2023-01-21T02:22:09.215Z,3.90
2023-01-21T02:24:51.039Z,3.90
2023-01-21T02:27:17.614Z,3.80
2023-01-21T02:30:08.333Z,3.80
2023-01-21T02:33:00.351Z,3.90
2023-01-21T02:35:36.712Z,3.90
2023-01-21T02:38:03.329Z,4.00
2023-01-21T02:40:42.733Z,4.00
2023-01-21T02:43:28.385Z,4.10
2023-01-21T02:46:18.254Z,4.00
2023-01-21T02:48:57.558Z,4.00
2023-01-21T02:51:24.664Z,4.00
2023-01-21T02:53:51.631Z,3.90
2023-01-21T02:56:23.404Z,4.00
2023-01-21T02:59:04.662Z,4.00
2023-01-21T03:02:15.974Z,4.10
2023-01-21T03:04:59.102Z,4.00
2023-01-21T03:07:40.413Z,4.10
2023-01-21T03:10:13.910Z,4.10
2023-01-21T03:13:00.807Z,4.20
2023-01-21T03:15:52.657Z,4.10
2023-01-21T03:18:33.044Z,4.10
2023-01-21T03:21:06.018Z,4.10
2023-01-21T03:23:36.314Z,4.10
2023-01-21T03:26:04.641Z,4.00
2023-01-21T03:28:36.272Z,4.00
2023-01-21T03:31:16.966Z,3.90
2023-01-21T03:33:46.952Z,3.90
2023-01-21T03:36:23.601Z,3.90
2023-01-21T03:38:53.159Z,3.80
2023-01-21T03:41:33.908Z,3.90
2023-01-21T03:44:00.961Z,3.60
2023-01-21T03:46:39.157Z,3.70
2023-01-21T03:49:22.538Z,3.80
2023-01-21T03:51:53.889Z,3.70
2023-01-21T03:54:20.772Z,3.80
2023-01-21T03:56:47.333Z,3.90
2023-01-21T03:59:14.023Z,4.10
2023-01-21T04:01:41.686Z,4.20
2023-01-21T04:04:09.642Z,4.20
2023-01-21T04:06:37.000Z,4.40
2023-01-21T04:09:05.175Z,4.30
2023-01-21T04:11:31.787Z,4.30
2023-01-21T04:13:58.386Z,4.30
2023-01-21T04:16:25.108Z,4.30
2023-01-21T04:18:51.983Z,4.30
2023-01-21T04:21:18.626Z,4.20
2023-01-21T04:23:45.243Z,4.20
2023-01-21T04:26:11.884Z,5.00
2023-01-21T04:28:38.540Z,4.40
2023-01-21T04:31:05.183Z,4.20
2023-01-21T04:33:31.883Z,4.30
2023-01-21T04:35:59.759Z,4.10
2023-01-21T04:38:27.125Z,4.30
2023-01-21T04:40:54.299Z,4.10
2023-01-21T04:43:20.936Z,4.20
2023-01-21T04:45:47.728Z,4.20
2023-01-21T04:48:14.363Z,4.20
2023-01-21T04:50:40.979Z,4.00
2023-01-21T04:53:07.794Z,4.10
2023-01-21T04:55:34.448Z,4.20
2023-01-21T04:58:01.064Z,4.30
2023-01-21T05:00:27.681Z,4.40
2023-01-21T05:02:54.340Z,4.30
2023-01-21T05:05:21.045Z,4.30
2023-01-21T05:07:47.632Z,4.40
2023-01-21T05:10:17.893Z,4.40
2023-01-21T05:12:44.693Z,4.40
2023-01-21T05:15:11.944Z,4.40
2023-01-21T05:17:38.589Z,4.50
2023-01-21T05:20:06.113Z,4.30
2023-01-21T05:22:32.876Z,4.30
2023-01-21T05:25:00.534Z,4.30
2023-01-21T05:27:27.684Z,4.50
2023-01-21T05:29:54.385Z,4.40
2023-01-21T05:32:20.971Z,4.10
2023-01-21T05:34:47.624Z,4.20
2023-01-21T05:37:14.428Z,4.40
2023-01-21T05:39:41.147Z,4.40
2023-01-21T05:42:07.933Z,4.40
2023-01-21T05:44:34.522Z,4.40
2023-01-21T05:47:01.357Z,4.50
2023-01-21T05:49:28.605Z,4.30
2023-01-21T05:51:55.302Z,4.30
2023-01-21T05:54:22.066Z,4.40
2023-01-21T05:56:48.721Z,6.50
2023-01-21T05:59:15.304Z,4.40
2023-01-21T06:01:41.958Z,4.50
2023-01-21T06:04:08.581Z,4.40
2023-01-21T06:06:35.322Z,4.40
2023-01-21T06:09:01.942Z,4.20
2023-01-21T06:11:28.541Z,4.00
2023-01-21T06:13:55.117Z,4.00
2023-01-21T06:16:21.823Z,4.00
2023-01-21T06:18:48.487Z,3.90
2023-01-21T06:21:15.118Z,3.90
2023-01-21T06:23:41.790Z,3.90
2023-01-21T06:26:08.451Z,3.80
2023-01-21T06:28:35.050Z,3.90
2023-01-21T06:31:01.775Z,3.60
2023-01-21T06:33:28.495Z,3.80
2023-01-21T06:35:55.239Z,3.60
2023-01-21T06:38:21.793Z,3.50
2023-01-21T06:40:48.395Z,3.70
2023-01-21T06:43:14.983Z,3.70
2023-01-21T06:45:41.824Z,3.70
2023-01-21T06:48:08.417Z,3.60
2023-01-21T06:50:35.157Z,3.70
2023-01-21T06:53:01.840Z,3.70
2023-01-21T06:55:28.450Z,3.80
2023-01-21T06:57:55.039Z,3.70
2023-01-21T07:00:22.130Z,4.10
2023-01-21T07:02:48.892Z,3.90
2023-01-21T07:05:16.060Z,4.00
2023-01-21T07:07:43.007Z,3.90
2023-01-21T07:10:10.405Z,4.10
2023-01-21T07:12:37.038Z,4.10
2023-01-21T07:15:04.143Z,4.20
2023-01-21T07:17:30.771Z,4.10
2023-01-21T07:19:57.365Z,4.10
2023-01-21T07:22:23.992Z,4.20
2023-01-21T07:24:50.652Z,4.10
2023-01-21T07:27:17.313Z,4.10
2023-01-21T07:29:43.883Z,4.00
2023-01-21T07:32:10.472Z,3.80
2023-01-21T07:34:37.114Z,3.60
2023-01-21T07:37:03.966Z,3.60
2023-01-21T07:39:30.548Z,3.70
2023-01-21T07:41:57.145Z,3.80
2023-01-21T07:44:23.753Z,3.90
2023-01-21T07:46:50.717Z,3.90
2023-01-21T07:49:18.303Z,3.90
2023-01-21T07:51:45.910Z,2.40
2023-01-21T07:54:13.553Z,3.90
2023-01-21T07:56:40.518Z,4.00
2023-01-21T07:59:07.492Z,3.90
2023-01-21T08:01:34.189Z,4.00
2023-01-21T08:04:01.164Z,3.90
2023-01-21T08:06:27.853Z,3.90
2023-01-21T08:08:54.488Z,3.90
2023-01-21T08:11:21.170Z,4.20
2023-01-21T08:13:49.916Z,3.90
2023-01-21T08:16:16.796Z,3.90
2023-01-21T08:18:43.385Z,3.80
2023-01-21T08:21:10.014Z,3.80
2023-01-21T08:23:36.655Z,3.90
2023-01-21T08:26:04.088Z,4.00
2023-01-21T08:28:30.799Z,4.00
2023-01-21T08:31:06.539Z,4.00
2023-01-21T08:33:33.229Z,3.90
2023-01-21T08:36:01.234Z,4.20
2023-01-21T08:38:27.908Z,3.90
2023-01-21T08:40:55.984Z,3.80
2023-01-21T08:43:22.602Z,3.70
2023-01-21T08:45:49.283Z,3.90
2023-01-21T08:48:15.932Z,3.90
2023-01-21T08:50:42.840Z,3.90
2023-01-21T08:53:11.108Z,4.00
2023-01-21T08:55:37.845Z,4.00
2023-01-21T08:58:04.519Z,3.90
2023-01-21T09:00:31.286Z,4.00
2023-01-21T09:02:59.553Z,3.90
2023-01-21T09:05:26.202Z,4.00
2023-01-21T09:07:52.921Z,4.00
2023-01-21T09:10:38.513Z,4.00
2023-01-21T09:13:06.498Z,4.00
2023-01-21T09:15:41.013Z,3.80
2023-01-21T09:18:07.721Z,3.90
2023-01-21T09:20:34.550Z,4.00
2023-01-21T09:23:01.185Z,4.20
2023-01-21T09:25:27.937Z,4.30
2023-01-21T09:27:54.562Z,4.20
2023-01-21T09:30:21.218Z,4.30
2023-01-21T09:32:47.827Z,4.30
2023-01-21T09:35:14.740Z,4.40
2023-01-21T09:37:41.480Z,4.40
2023-01-21T09:40:16.231Z,4.30
2023-01-21T09:42:43.171Z,4.40
2023-01-21T09:45:14.618Z,4.30
2023-01-21T09:47:44.616Z,6.00
2023-01-21T09:50:18.870Z,4.50
2023-01-21T09:52:48.797Z,4.50
2023-01-21T09:55:23.218Z,4.60
2023-01-21T09:58:02.583Z,4.40
2023-01-21T10:01:04.438Z,4.50
2023-01-21T10:03:54.706Z,4.60
2023-01-21T10:06:30.910Z,4.70
2023-01-21T10:09:03.461Z,4.50
2023-01-21T10:11:55.587Z,4.40
2023-01-21T10:14:28.270Z,2.90
2023-01-21T10:17:05.831Z,4.60
2023-01-21T10:19:45.559Z,4.50
2023-01-21T10:22:17.171Z,4.60
2023-01-21T10:24:48.349Z,4.50
2023-01-21T10:27:19.093Z,4.40
2023-01-21T10:29:53.012Z,4.40
2023-01-21T10:32:24.933Z,4.40
2023-01-21T10:34:57.008Z,4.30
2023-01-21T10:37:52.403Z,4.30
2023-01-21T10:40:45.169Z,4.40
2023-01-21T10:43:30.017Z,4.50
2023-01-21T10:46:25.513Z,4.50
2023-01-21T10:49:01.921Z,4.70
2023-01-21T10:51:57.833Z,4.70
2023-01-21T10:54:36.566Z,4.80
2023-01-21T10:57:25.780Z,4.90
2023-01-21T10:59:53.687Z,4.90
2023-01-21T11:02:33.321Z,5.00
2023-01-21T11:05:05.029Z,4.90
2023-01-21T11:07:39.854Z,5.00
2023-01-21T11:10:07.738Z,5.20
2023-01-21T11:12:34.435Z,5.20
2023-01-21T11:15:14.675Z,5.00
2023-01-21T11:17:43.966Z,5.00
2023-01-21T11:20:25.127Z,5.00
2023-01-21T11:22:52.004Z,5.10
2023-01-21T11:25:33.607Z,5.00
2023-01-21T11:28:00.227Z,4.90
2023-01-21T11:30:50.120Z,5.10
2023-01-21T11:33:26.370Z,5.20
2023-01-21T11:35:54.329Z,5.10
2023-01-21T11:38:29.782Z,5.10
2023-01-21T11:41:04.881Z,5.20
2023-01-21T11:43:52.718Z,5.20
2023-01-21T11:46:25.115Z,5.40
2023-01-21T11:48:55.373Z,5.30
2023-01-21T11:51:22.196Z,5.30
2023-01-21T11:53:48.825Z,5.40
2023-01-21T11:56:16.326Z,5.40
2023-01-21T11:58:43.144Z,5.30
2023-01-21T12:01:21.145Z,5.40
2023-01-21T12:03:53.108Z,5.50
2023-01-21T12:06:31.237Z,5.50
2023-01-21T12:09:07.810Z,5.40
2023-01-21T12:11:34.731Z,5.50
2023-01-21T12:14:08.939Z,5.60
2023-01-21T12:16:46.918Z,5.50
2023-01-21T12:19:26.917Z,5.60
2023-01-21T12:22:11.880Z,5.50
2023-01-21T12:24:53.607Z,5.40
2023-01-21T12:27:49.143Z,5.40
2023-01-21T12:30:46.332Z,5.30
2023-01-21T12:33:57.602Z,5.50
2023-01-21T12:36:31.167Z,5.60
2023-01-21T12:39:16.508Z,5.50
2023-01-21T12:41:48.481Z,5.50
2023-01-21T12:44:37.733Z,5.50
2023-01-21T12:47:18.862Z,5.40
2023-01-21T12:49:57.297Z,5.30
2023-01-21T12:52:36.914Z,5.50
2023-01-21T12:55:24.207Z,5.40
2023-01-21T12:57:57.954Z,5.30
2023-01-21T13:00:33.851Z,5.30
2023-01-21T13:03:26.662Z,5.40
2023-01-21T13:06:21.040Z,5.40
2023-01-21T13:08:53.468Z,5.50
2023-01-21T13:11:42.820Z,5.60
2023-01-21T13:14:09.431Z,5.70
2023-01-21T13:16:44.106Z,5.60
2023-01-21T13:19:14.203Z,5.50
2023-01-21T13:21:46.855Z,5.80
2023-01-21T13:24:17.933Z,5.80
2023-01-21T13:27:09.285Z,5.80
2023-01-21T13:29:48.117Z,5.80
2023-01-21T13:32:44.428Z,5.80
2023-01-21T13:35:29.426Z,5.80
2023-01-21T13:38:15.258Z,5.90
2023-01-21T13:40:55.249Z,6.00
2023-01-21T13:43:44.224Z,5.80
2023-01-21T13:46:39.249Z,5.70
2023-01-21T13:49:36.496Z,5.70
2023-01-21T13:52:22.709Z,5.80
2023-01-21T13:55:22.323Z,5.90
2023-01-21T13:58:03.901Z,6.00
2023-01-21T14:00:36.275Z,6.00
2023-01-21T14:03:05.929Z,6.00
2023-01-21T14:05:51.096Z,5.80
2023-01-21T14:08:48.391Z,5.80
2023-01-21T14:11:28.762Z,5.80
2023-01-21T14:14:21.515Z,5.80
2023-01-21T14:17:07.338Z,5.80
2023-01-21T14:20:09.560Z,5.80
2023-01-21T14:22:38.909Z,5.80
2023-01-21T14:25:17.295Z,5.60
2023-01-21T14:28:08.648Z,5.50
2023-01-21T14:30:45.777Z,5.50
2023-01-21T14:33:17.453Z,5.50
2023-01-21T14:36:04.140Z,5.60
2023-01-21T14:38:59.179Z,5.50
2023-01-21T14:42:05.951Z,5.50
2023-01-21T14:44:43.669Z,5.60
2023-01-21T14:47:14.756Z,5.60
2023-01-21T14:49:47.999Z,5.70
2023-01-21T14:52:17.451Z,5.70
2023-01-21T14:54:46.177Z,5.70
2023-01-21T14:57:32.491Z,5.80
2023-01-21T15:00:23.979Z,5.70
2023-01-21T15:03:14.748Z,5.60
2023-01-21T15:05:44.269Z,5.60
2023-01-21T15:08:32.723Z,5.40
2023-01-21T15:11:03.805Z,5.40
2023-01-21T15:13:33.411Z,5.20
2023-01-21T15:16:15.071Z,5.20
2023-01-21T15:19:06.156Z,5.30
2023-01-21T15:21:42.216Z,5.30
2023-01-21T15:24:30.497Z,5.20
2023-01-21T15:27:22.549Z,5.20
2023-01-21T15:29:54.977Z,5.10
2023-01-21T15:32:45.253Z,5.20
2023-01-21T15:35:11.824Z,5.20
2023-01-21T15:37:43.592Z,5.20
2023-01-21T15:40:27.203Z,5.20
2023-01-21T15:43:26.651Z,5.10
2023-01-21T15:46:07.356Z,5.10
2023-01-21T15:48:58.412Z,5.10
2023-01-21T15:51:40.630Z,5.10
2023-01-21T15:54:13.372Z,5.00
2023-01-21T15:56:45.741Z,4.90
2023-01-21T15:59:21.818Z,4.90
2023-01-21T16:02:19.990Z,5.00
2023-01-21T16:05:22.042Z,4.80
2023-01-21T16:08:11.138Z,4.60
2023-01-21T16:11:01.738Z,4.60
2023-01-21T16:13:28.275Z,4.70
2023-01-21T16:16:18.170Z,4.70
2023-01-21T16:19:00.422Z,4.70
2023-01-21T16:21:40.194Z,4.50
2023-01-21T16:24:20.932Z,4.50
2023-01-21T16:26:47.538Z,4.50
2023-01-21T16:29:15.357Z,4.60
2023-01-21T16:31:46.546Z,4.50
2023-01-21T16:34:13.789Z,4.30
2023-01-21T16:36:40.439Z,4.30
2023-01-21T16:39:09.709Z,4.30
2023-01-21T16:41:37.440Z,4.10
2023-01-21T16:44:05.577Z,3.90
2023-01-21T16:46:40.764Z,3.60
2023-01-21T16:49:16.719Z,3.90
2023-01-21T16:51:52.533Z,3.80
2023-01-21T16:54:28.369Z,3.70
2023-01-21T16:56:56.985Z,3.70
2023-01-21T16:59:42.346Z,3.60
2023-01-21T17:02:26.884Z,3.60
2023-01-21T17:04:56.858Z,3.70
2023-01-21T17:07:56.620Z,3.60
2023-01-21T17:10:39.110Z,3.70
2023-01-21T17:13:07.897Z,4.00
2023-01-21T17:15:40.377Z,3.80
2023-01-21T17:18:09.956Z,3.80
2023-01-21T17:20:43.869Z,3.80
2023-01-21T17:23:15.281Z,3.90
2023-01-21T17:25:42.548Z,3.90
2023-01-21T17:28:29.113Z,3.90
2023-01-21T17:31:23.180Z,3.80
2023-01-21T17:34:06.924Z,4.00
2023-01-21T17:36:40.960Z,3.90
2023-01-21T17:39:10.155Z,3.80
2023-01-21T17:41:41.021Z,3.80
2023-01-21T17:44:23.960Z,3.70
2023-01-21T17:46:53.272Z,3.80
2023-01-21T17:49:23.215Z,3.80
2023-01-21T17:51:52.219Z,3.90
2023-01-21T17:54:23.074Z,3.40
2023-01-21T17:56:52.973Z,3.70
2023-01-21T17:59:37.992Z,3.70
2023-01-21T18:02:12.854Z,3.70
2023-01-21T18:04:40.163Z,3.70
2023-01-21T18:07:27.717Z,3.80
2023-01-21T18:09:55.250Z,3.80
2023-01-21T18:12:21.892Z,3.80
2023-01-21T18:14:48.578Z,3.80
2023-01-21T18:17:18.000Z,3.90
2023-01-21T18:19:44.782Z,3.90
2023-01-21T18:22:24.832Z,3.90
2023-01-21T18:24:51.469Z,3.90
2023-01-21T18:27:18.459Z,3.90
2023-01-21T18:29:45.068Z,3.90
2023-01-21T18:32:15.549Z,4.00
2023-01-21T18:34:42.603Z,3.90
2023-01-21T18:37:17.746Z,3.80
2023-01-21T18:39:44.724Z,3.90
2023-01-21T18:42:15.816Z,4.00
2023-01-21T18:44:43.161Z,4.30
2023-01-21T18:47:15.540Z,4.70
2023-01-21T18:49:42.484Z,4.50
2023-01-21T18:52:17.991Z,4.30
2023-01-21T18:54:45.027Z,4.00
2023-01-21T18:57:16.518Z,4.10
2023-01-21T18:59:43.111Z,4.00
2023-01-21T19:02:14.564Z,3.80
2023-01-21T19:04:41.217Z,3.90
2023-01-21T19:07:19.969Z,3.80
2023-01-21T19:09:47.345Z,3.70
2023-01-21T19:12:16.738Z,3.80
2023-01-21T19:14:43.439Z,3.90
2023-01-21T19:17:14.542Z,3.90
2023-01-21T19:19:41.493Z,3.80
2023-01-21T19:22:14.180Z,3.70
2023-01-21T19:24:41.251Z,3.60
2023-01-21T19:27:30.364Z,3.50
2023-01-21T19:29:57.043Z,3.50
2023-01-21T19:32:23.677Z,3.50
2023-01-21T19:34:50.440Z,3.60
2023-01-21T19:37:22.615Z,3.70
2023-01-21T19:39:49.309Z,3.70
2023-01-21T19:42:16.632Z,3.70
2023-01-21T19:44:43.249Z,3.70
2023-01-21T19:47:27.583Z,3.90
2023-01-21T19:49:54.207Z,3.70
2023-01-21T19:52:20.853Z,3.70
2023-01-21T19:54:47.473Z,3.70
2023-01-21T19:57:15.608Z,3.60
2023-01-21T19:59:43.995Z,3.50
2023-01-21T20:02:11.558Z,3.50
2023-01-21T20:04:38.317Z,3.60
2023-01-21T20:07:05.531Z,3.60
2023-01-21T20:09:32.658Z,3.60
2023-01-21T20:11:59.789Z,3.60
2023-01-21T20:14:27.648Z,3.80
2023-01-21T20:16:54.694Z,3.60
2023-01-21T20:19:22.749Z,3.70
2023-01-21T20:22:01.285Z,3.60
2023-01-21T20:24:30.218Z,3.50
2023-01-21T20:26:58.182Z,3.50
2023-01-21T20:29:26.885Z,3.70
2023-01-21T20:31:54.311Z,3.40
2023-01-21T20:34:21.110Z,3.40
2023-01-21T20:36:49.748Z,3.50
2023-01-21T20:39:16.438Z,3.40
2023-01-21T20:41:43.462Z,3.60
2023-01-21T20:44:10.544Z,3.40
2023-01-21T20:46:38.584Z,3.40
2023-01-21T20:49:05.443Z,3.60
2023-01-21T20:51:32.060Z,3.50
2023-01-21T20:53:58.667Z,3.40
2023-01-21T20:56:31.433Z,3.30
2023-01-21T20:58:58.866Z,3.40
2023-01-21T21:01:27.252Z,3.50
2023-01-21T21:03:54.020Z,3.60
2023-01-21T21:06:26.371Z,3.50
2023-01-21T21:08:53.333Z,3.40
2023-01-21T21:11:20.537Z,3.40
2023-01-21T21:13:50.348Z,3.20
2023-01-21T21:16:20.202Z,3.20
2023-01-21T21:18:47.577Z,3.20
2023-01-21T21:21:15.832Z,3.30
2023-01-21T21:23:46.363Z,3.30
2023-01-21T21:26:22.186Z,3.50
2023-01-21T21:28:49.232Z,3.20
2023-01-21T21:31:17.713Z,3.30
2023-01-21T21:33:44.772Z,3.30
2023-01-21T21:36:20.053Z,3.20
2023-01-21T21:38:47.482Z,3.20
2023-01-21T21:41:38.758Z,3.20
2023-01-21T21:44:06.691Z,3.20
2023-01-21T21:46:52.292Z,3.30
2023-01-21T21:49:18.893Z,3.20
2023-01-21T21:51:45.892Z,3.20
2023-01-21T21:54:14.873Z,3.20
2023-01-21T21:56:42.652Z,3.20
2023-01-21T21:59:10.419Z,3.20
2023-01-21T22:01:37.203Z,3.10
2023-01-21T22:04:04.531Z,3.20
2023-01-21T22:06:32.153Z,3.20
2023-01-21T22:08:59.586Z,3.30
2023-01-21T22:11:27.394Z,3.40
2023-01-21T22:13:55.035Z,3.30
2023-01-21T22:16:24.892Z,3.20
2023-01-21T22:18:52.769Z,3.50
2023-01-21T22:21:23.265Z,3.10
2023-01-21T22:23:50.513Z,3.20
2023-01-21T22:26:21.554Z,3.20
2023-01-21T22:28:48.982Z,3.70
2023-01-21T22:31:27.768Z,3.60
2023-01-21T22:33:55.343Z,3.60
2023-01-21T22:36:24.483Z,3.60
2023-01-21T22:38:51.767Z,3.60
2023-01-21T22:41:20.888Z,3.60
2023-01-21T22:43:48.826Z,3.40
2023-01-21T22:46:24.115Z,3.30
2023-01-21T22:48:52.504Z,3.40
2023-01-21T22:51:21.171Z,3.50
2023-01-21T22:53:49.403Z,3.50
2023-01-21T22:56:18.354Z,3.40
2023-01-21T22:58:45.171Z,3.40
2023-01-21T23:01:31.086Z,3.40
2023-01-21T23:03:59.146Z,3.30
2023-01-21T23:06:26.123Z,3.30
2023-01-21T23:08:52.891Z,3.30
2023-01-21T23:11:20.469Z,3.30
2023-01-21T23:13:49.089Z,3.40
2023-01-21T23:16:17.737Z,3.40
2023-01-21T23:18:44.462Z,3.50
2023-01-21T23:21:15.808Z,3.50
2023-01-21T23:23:42.548Z,3.40
2023-01-21T23:26:10.622Z,3.40
2023-01-21T23:28:38.138Z,3.40
2023-01-21T23:31:06.934Z,3.40
2023-01-21T23:33:34.337Z,3.40
2023-01-21T23:36:01.478Z,3.40
2023-01-21T23:38:29.083Z,3.30
2023-01-21T23:40:56.730Z,3.30
2023-01-21T23:43:26.184Z,3.30
2023-01-21T23:45:53.668Z,3.40
2023-01-21T23:48:20.621Z,3.50
2023-01-21T23:50:47.243Z,3.40
2023-01-21T23:53:14.084Z,3.30
2023-01-21T23:55:40.892Z,3.40
2023-01-21T23:58:07.602Z,3.40
